Terminal Aerodrome Forecast
Issued by NWS

Home | Current Version | Previous Version | Text Only | Print | Product List | Glossary On
Versions: 1 2 3 4 5 6 7 8 9 10 11 12 13 14 15 16 17 18 19 20
000
FTUS41 KPBZ 220200 AAA
TAFMGW
TAF AMD
KMGW 220206Z 2202/2224 29006KT P6SM FEW035
     FM220800 29005KT P6SM BKN020
     FM221300 30007KT P6SM BKN035=

USA.gov is the U.S. government's official web portal to all federal, state and local government web resources and services.